Time;durP1;ratioP1;P1;durP2;ratioP2;P2;SDS_P1;SDS_P2;PMS_P1;PMS_P2;Temp;Humidity;BMP_temperature;BMP_pressure;BME280_temperature;BME280_humidity;BME280_pressure;Samples;Min_cycle;Max_cycle;Signal;HPM_P1;HPM_P2
2023/08/11 00:00:08;;;;;;;0.20;0.10;;;;;;;22.16;100.00;99775.81;7393600;19;20025;-53
2023/08/11 00:02:38;;;;;;;1.55;0.30;;;;;;;22.19;100.00;99769.81;7394093;19;20026;-54
2023/08/11 00:05:11;;;;;;;6.28;0.82;;;;;;;22.24;100.00;99773.81;7396083;19;20011;-54
2023/08/11 00:07:37;;;;;;;6.95;1.27;;;;;;;22.28;100.00;99771.38;7392371;19;20011;-54
2023/08/11 00:10:05;;;;;;;0.73;0.38;;;;;;;22.43;100.00;99777.13;7392966;19;20470;-54
2023/08/11 00:12:31;;;;;;;1.83;0.50;;;;;;;22.54;100.00;99771.88;7393527;19;20016;-54
2023/08/11 00:14:57;;;;;;;0.90;0.32;;;;;;;22.60;100.00;99778.19;7397685;19;20074;-54
2023/08/11 00:17:23;;;;;;;0.80;0.52;;;;;;;22.73;100.00;99765.16;7393456;19;20349;-54
2023/08/11 00:19:49;;;;;;;3.10;0.52;;;;;;;22.63;100.00;99758.50;7393950;19;20014;-54
2023/08/11 00:22:15;;;;;;;1.15;0.50;;;;;;;22.75;100.00;99766.13;7393072;19;20014;-54
2023/08/11 00:24:41;;;;;;;7.32;0.20;;;;;;;22.80;100.00;99758.75;7395958;19;20014;-54
2023/08/11 00:27:07;;;;;;;2.85;0.93;;;;;;;22.67;100.00;99764.59;7394810;19;20373;-54
2023/08/11 00:29:35;;;;;;;0.43;0.32;;;;;;;22.69;100.00;99754.19;7391085;19;20011;-54
2023/08/11 00:32:01;;;;;;;1.60;0.30;;;;;;;22.72;100.00;99763.66;7391531;19;20007;-54
2023/08/11 00:34:27;;;;;;;2.78;0.65;;;;;;;22.75;100.00;99762.53;7394805;19;20020;-55
2023/08/11 00:36:55;;;;;;;0.95;0.30;;;;;;;23.73;100.00;99754.97;7392968;19;20011;-55
2023/08/11 00:39:21;;;;;;;1.30;0.52;;;;;;;20.95;100.00;99763.38;7395640;19;20507;-55
2023/08/11 00:41:47;;;;;;;0.52;0.13;;;;;;;19.52;100.00;99774.19;7393261;19;20066;-55
2023/08/11 00:44:13;;;;;;;11.43;0.40;;;;;;;18.82;100.00;99769.09;7393821;19;20007;-55
2023/08/11 00:46:42;;;;;;;1.33;0.57;;;;;;;18.67;100.00;99763.16;7391334;19;20040;-55
2023/08/11 00:49:09;;;;;;;2.10;0.22;;;;;;;18.43;100.00;99761.13;7391332;19;20011;-55
2023/08/11 00:51:36;;;;;;;0.93;0.40;;;;;;;20.84;100.00;99741.75;7392866;19;20007;-54
2023/08/11 00:54:04;;;;;;;1.52;0.75;;;;;;;20.75;100.00;99739.38;7394212;19;20087;-54
2023/08/11 00:56:30;;;;;;;2.85;0.57;;;;;;;18.83;100.00;99743.19;7395359;19;20002;-54
2023/08/11 00:58:57;;;;;;;0.77;0.73;;;;;;;18.45;100.00;99738.81;7398803;19;20011;-54
2023/08/11 01:01:24;;;;;;;1.70;0.60;;;;;;;20.65;100.00;99732.69;7398825;19;20467;-55
2023/08/11 01:03:51;;;;;;;0.55;0.20;;;;;;;21.58;100.00;99725.28;7402319;19;20007;-54
2023/08/11 01:06:29;;;;;;;0.57;0.25;;;;;;;19.30;100.00;99729.34;7399731;19;20026;-54
2023/08/11 01:09:00;;;;;;;5.60;0.95;;;;;;;18.95;100.00;99729.66;7399063;19;20010;-55
2023/08/11 01:11:38;;;;;;;1.17;0.75;;;;;;;18.56;100.00;99733.03;7399230;19;20011;-55
2023/08/11 01:14:14;;;;;;;2.10;0.20;;;;;;;18.74;100.00;99728.69;7401003;19;20464;-55
2023/08/11 01:16:48;;;;;;;0.60;0.17;;;;;;;21.71;100.00;99716.69;7398631;19;20010;-55
2023/08/11 01:19:27;;;;;;;3.80;1.05;;;;;;;19.53;100.00;99736.16;7401044;19;20014;-55
2023/08/11 01:21:57;;;;;;;1.75;0.60;;;;;;;20.74;100.00;99729.38;7403825;19;20018;-55
2023/08/11 01:24:25;;;;;;;2.05;0.77;;;;;;;19.22;100.00;99734.09;7402530;19;20014;-55
2023/08/11 01:26:52;;;;;;;1.10;0.52;;;;;;;18.76;100.00;99723.28;7400738;19;20014;-55
2023/08/11 01:29:18;;;;;;;4.57;0.38;;;;;;;18.78;100.00;99735.53;7399322;19;20355;-55
2023/08/11 01:31:45;;;;;;;2.55;0.52;;;;;;;19.25;100.00;99733.00;7397443;19;20328;-54
2023/08/11 01:34:11;;;;;;;3.65;0.55;;;;;;;18.53;100.00;99730.53;7399181;19;20400;-54
2023/08/11 01:36:40;;;;;;;0.98;0.20;;;;;;;18.55;100.00;99728.69;7399198;19;20067;-54
2023/08/11 01:39:09;;;;;;;4.15;0.50;;;;;;;21.86;100.00;99726.09;7401145;19;20656;-54
2023/08/11 01:41:38;;;;;;;1.25;0.70;;;;;;;22.51;100.00;99721.91;7398648;19;20019;-54
2023/08/11 01:44:05;;;;;;;0.40;0.20;;;;;;;22.29;100.00;99728.25;7397842;19;20105;-55
2023/08/11 01:46:33;;;;;;;2.33;0.28;;;;;;;20.28;100.00;99730.13;7400330;19;20011;-54
2023/08/11 01:49:02;;;;;;;0.60;0.45;;;;;;;19.87;100.00;99735.56;7399380;19;20509;-54
2023/08/11 01:51:29;;;;;;;1.02;0.70;;;;;;;18.86;100.00;99735.72;7398987;19;20037;-54
2023/08/11 01:53:55;;;;;;;1.10;0.43;;;;;;;18.43;100.00;99727.28;7398251;19;20032;-55
2023/08/11 01:56:23;;;;;;;0.40;0.10;;;;;;;18.30;100.00;99729.28;7399875;19;20011;-55
2023/08/11 01:58:50;;;;;;;3.97;0.20;;;;;;;18.32;100.00;99727.44;7400163;19;20498;-55
2023/08/11 02:01:16;;;;;;;0.57;0.52;;;;;;;18.33;100.00;99725.38;7397351;19;20019;-55
2023/08/11 02:03:43;;;;;;;0.30;0.30;;;;;;;18.23;100.00;99729.88;7398361;19;20014;-55
2023/08/11 02:06:09;;;;;;;1.48;0.73;;;;;;;18.23;100.00;99724.22;7400628;19;20015;-55
2023/08/11 02:08:35;;;;;;;0.70;0.28;;;;;;;18.28;100.00;99714.94;7396711;19;20010;-55
2023/08/11 02:11:03;;;;;;;0.65;0.13;;;;;;;19.16;100.00;99715.72;7401490;19;20007;-55
2023/08/11 02:13:30;;;;;;;1.75;1.00;;;;;;;22.61;100.00;99713.63;7394667;19;20038;-55
2023/08/11 02:16:01;;;;;;;4.25;0.75;;;;;;;21.03;100.00;99719.72;7396091;19;20018;-55
2023/08/11 02:18:27;;;;;;;1.45;0.20;;;;;;;19.70;100.00;99709.66;7395861;19;20014;-55
2023/08/11 02:20:53;;;;;;;4.13;0.80;;;;;;;21.94;100.00;99697.03;7397214;19;20046;-55
2023/08/11 02:23:19;;;;;;;3.95;1.15;;;;;;;20.16;100.00;99715.41;7398828;19;20066;-55
2023/08/11 02:25:46;;;;;;;0.40;0.40;;;;;;;18.78;100.00;99706.56;7396609;19;20019;-55
2023/08/11 02:28:12;;;;;;;5.43;0.68;;;;;;;18.46;100.00;99714.97;7398012;19;20021;-55
2023/08/11 02:30:40;;;;;;;2.95;0.35;;;;;;;18.19;100.00;99713.25;7396587;19;20014;-55
2023/08/11 02:33:07;;;;;;;1.55;0.82;;;;;;;18.06;100.00;99725.19;7395387;19;20006;-55
2023/08/11 02:35:33;;;;;;;1.00;0.40;;;;;;;17.97;100.00;99719.94;7399866;19;20010;-55
2023/08/11 02:38:00;;;;;;;6.30;0.45;;;;;;;17.95;100.00;99722.50;7396864;19;20017;-55
2023/08/11 02:40:26;;;;;;;8.02;1.63;;;;;;;17.89;100.00;99718.22;7400072;19;20066;-54
2023/08/11 02:42:58;;;;;;;0.50;0.20;;;;;;;17.92;100.00;99722.81;7395867;19;20031;-55
2023/08/11 02:45:25;;;;;;;2.10;0.70;;;;;;;17.90;100.00;99725.38;7395035;19;20344;-55
2023/08/11 02:47:52;;;;;;;7.68;0.73;;;;;;;17.91;100.00;99722.03;7399296;19;20011;-55
2023/08/11 02:50:18;;;;;;;1.83;0.75;;;;;;;17.96;100.00;99718.41;7395609;19;20018;-55
2023/08/11 02:52:45;;;;;;;2.47;0.30;;;;;;;17.98;100.00;99713.00;7396993;19;20014;-55
2023/08/11 02:55:14;;;;;;;1.25;0.13;;;;;;;17.97;100.00;99719.94;7394767;19;20455;-54
2023/08/11 02:57:41;;;;;;;0.50;0.30;;;;;;;17.97;100.00;99717.13;7390924;19;20036;-55
2023/08/11 03:00:15;;;;;;;8.88;0.95;;;;;;;17.97;100.00;99719.94;7396710;19;20017;-55
2023/08/11 03:02:42;;;;;;;0.95;0.45;;;;;;;17.99;100.00;99711.72;7390835;19;20024;-55
2023/08/11 03:05:11;;;;;;;0.55;0.52;;;;;;;18.01;100.00;99723.22;7390651;19;20007;-55
2023/08/11 03:07:41;;;;;;;4.88;1.23;;;;;;;18.01;100.00;99714.75;7388707;19;20070;-55
2023/08/11 03:10:09;;;;;;;0.93;0.30;;;;;;;18.01;100.00;99719.63;7391451;19;20027;-55
2023/08/11 03:12:37;;;;;;;1.30;0.45;;;;;;;18.02;100.00;99709.88;7395937;19;20467;-55
2023/08/11 03:15:05;;;;;;;2.53;0.40;;;;;;;18.04;100.00;99713.69;7394869;19;20455;-55
2023/08/11 03:17:32;;;;;;;0.73;0.28;;;;;;;18.04;100.00;99713.69;7394491;19;20020;-55
2023/08/11 03:19:59;;;;;;;2.70;0.77;;;;;;;18.02;100.00;99707.81;7394422;19;20022;-55
2023/08/11 03:22:26;;;;;;;7.22;0.73;;;;;;;17.98;100.00;99707.34;7393040;19;20014;-55
2023/08/11 03:24:53;;;;;;;1.33;0.28;;;;;;;17.98;100.00;99704.53;7394275;19;20010;-54
2023/08/11 03:27:19;;;;;;;1.10;0.43;;;;;;;17.98;100.00;99700.94;7397009;19;20013;-55
2023/08/11 03:29:45;;;;;;;1.38;0.20;;;;;;;17.93;100.00;99702.53;7394431;19;20031;-55
2023/08/11 03:32:12;;;;;;;0.13;0.10;;;;;;;17.89;100.00;99702.06;7393979;19;20014;-55
2023/08/11 03:34:38;;;;;;;3.50;0.45;;;;;;;17.87;100.00;99707.47;7396708;19;20017;-55
2023/08/11 03:37:06;;;;;;;5.60;1.42;;;;;;;17.89;100.00;99713.34;7393983;19;20007;-55
2023/08/11 03:39:32;;;;;;;0.60;0.20;;;;;;;17.87;100.00;99710.28;7397325;19;20018;-54
2023/08/11 03:41:59;;;;;;;0.93;0.28;;;;;;;17.83;100.00;99709.84;7392586;19;20031;-54
2023/08/11 03:44:25;;;;;;;0.73;0.65;;;;;;;17.79;100.00;99703.75;7394580;19;20031;-55
2023/08/11 03:46:53;;;;;;;7.57;0.40;;;;;;;17.78;100.00;99702.19;7392385;19;20025;-54
2023/08/11 03:49:19;;;;;;;0.98;0.30;;;;;;;17.77;100.00;99706.31;7394926;19;20478;-55
2023/08/11 03:51:46;;;;;;;2.05;0.93;;;;;;;17.77;100.00;99705.56;7394485;19;20371;-54
2023/08/11 03:54:12;;;;;;;7.18;0.70;;;;;;;17.76;100.00;99704.78;7394869;19;20015;-55
2023/08/11 03:56:38;;;;;;;1.05;0.22;;;;;;;17.82;100.00;99707.56;7397650;19;20010;-54
2023/08/11 03:59:05;;;;;;;2.78;0.22;;;;;;;17.78;100.00;99710.66;7393335;19;20011;-54
2023/08/11 04:01:32;;;;;;;2.60;0.13;;;;;;;17.78;100.00;99702.19;7393168;19;20042;-54
2023/08/11 04:07:30;;;;;;;0.43;0.17;;;;;;;17.77;100.00;99717.59;7395996;19;20790;-57
2023/08/11 04:17:28;;;;;;;0.35;0.20;;;;;;;18.09;100.00;99726.94;7394488;19;20011;-57
2023/08/11 04:20:22;;;;;;;1.05;0.30;;;;;;;18.01;100.00;99734.47;7391542;19;20409;-56
2023/08/11 04:29:47;;;;;;;0.50;0.17;;;;;;;19.55;100.00;99718.69;7398529;19;20486;-55
2023/08/11 04:32:14;;;;;;;1.00;0.38;;;;;;;19.61;100.00;99711.63;7390807;19;20019;-57
2023/08/11 04:38:10;;;;;;;0.65;0.20;;;;;;;19.78;100.00;99721.84;7401913;19;20029;-55
2023/08/11 04:40:56;;;;;;;0.70;0.20;;;;;;;19.52;100.00;99717.69;7400672;19;20018;-57
2023/08/11 04:43:29;;;;;;;1.38;0.25;;;;;;;19.57;100.00;99725.31;7397721;19;20011;-58
2023/08/11 04:46:00;;;;;;;0.43;0.15;;;;;;;18.55;100.00;99730.75;7397203;19;20007;-57
2023/08/11 04:48:36;;;;;;;4.07;0.50;;;;;;;18.29;100.00;99733.38;7401393;19;20359;-59
2023/08/11 04:51:24;;;;;;;2.80;0.25;;;;;;;19.27;100.00;99741.72;7398727;19;20030;-57
2023/08/11 04:54:13;;;;;;;1.02;0.22;;;;;;;19.67;100.00;99734.13;7399382;19;20031;-57
2023/08/11 04:56:50;;;;;;;0.20;0.20;;;;;;;19.29;100.00;99735.53;7403932;19;20048;-57
2023/08/11 04:59:21;;;;;;;3.42;0.55;;;;;;;19.28;100.00;99731.94;7403620;19;20003;-56
2023/08/11 05:01:55;;;;;;;0.20;0.20;;;;;;;18.24;100.00;99725.75;7399059;19;20033;-56
2023/08/11 05:04:24;;;;;;;1.25;0.20;;;;;;;17.61;100.00;99737.47;7399046;19;20027;-57
2023/08/11 05:06:59;;;;;;;4.22;0.45;;;;;;;17.86;100.00;99739.78;7397760;19;20018;-57
2023/08/11 05:09:30;;;;;;;0.73;0.38;;;;;;;17.47;100.00;99745.00;7399944;19;20014;-56
2023/08/11 05:12:09;;;;;;;0.25;0.15;;;;;;;17.38;100.00;99748.16;7398442;19;20056;-56
2023/08/11 05:17:34;;;;;;;1.85;0.10;;;;;;;17.40;100.00;99756.84;7400288;19;20026;-56
2023/08/11 05:20:24;;;;;;;0.10;0.10;;;;;;;17.53;100.00;99770.31;7400159;19;20359;-57
2023/08/11 05:22:54;;;;;;;1.33;0.17;;;;;;;17.65;100.00;99769.69;7400131;19;20031;-56
2023/08/11 05:25:24;;;;;;;2.08;0.10;;;;;;;17.68;100.00;99768.63;7399600;19;20481;-56
2023/08/11 05:27:55;;;;;;;7.05;0.13;;;;;;;17.73;100.00;99779.09;7395763;19;20011;-56
2023/08/11 05:30:27;;;;;;;1.65;0.40;;;;;;;17.68;100.00;99781.94;7399067;19;20387;-55
2023/08/11 05:33:06;;;;;;;0.10;0.00;;;;;;;17.66;100.00;99776.84;7399228;19;20010;-55
2023/08/11 05:36:08;;;;;;;1.45;0.57;;;;;;;17.62;100.00;99784.06;7399507;19;20342;-58
2023/08/11 05:38:59;;;;;;;0.80;0.20;;;;;;;17.61;100.00;99777.66;7397674;19;20328;-56
2023/08/11 05:45:21;;;;;;;0.10;0.00;;;;;;;17.56;100.00;99784.13;7397402;19;20078;-56
2023/08/11 05:47:56;;;;;;;0.43;0.20;;;;;;;17.57;100.00;99779.22;7398620;19;20014;-55
2023/08/11 05:50:53;;;;;;;0.73;0.22;;;;;;;17.50;100.00;99789.00;7401333;19;20006;-56
2023/08/11 05:53:37;;;;;;;7.32;0.20;;;;;;;17.48;100.00;99788.75;7401216;19;20022;-54
2023/08/11 05:56:33;;;;;;;2.38;0.38;;;;;;;17.76;100.00;99782.91;7398575;19;20015;-54
2023/08/11 05:59:27;;;;;;;0.00;0.00;;;;;;;17.91;100.00;99777.66;7396423;19;20526;-55
2023/08/11 06:02:18;;;;;;;0.85;0.20;;;;;;;17.74;100.00;99785.47;7400247;19;20450;-54
2023/08/11 06:06:19;;;;;;;0.38;0.20;;;;;;;18.50;100.00;99776.72;7398532;19;20038;-54
2023/08/11 06:28:04;;;;;;;1.95;0.28;;;;;;;18.94;100.00;99787.41;7393233;19;20102;-52
2023/08/11 06:31:22;;;;;;;0.75;0.20;;;;;;;18.18;100.00;99785.03;7393736;19;20022;-51
2023/08/11 07:01:32;;;;;;;0.10;0.10;;;;;;;17.82;100.00;99820.97;7395688;19;20017;-52
2023/08/11 07:20:02;;;;;;;0.10;0.10;;;;;;;18.51;100.00;99812.88;7394898;19;19918;-51
2023/08/11 07:24:07;;;;;;;4.68;0.30;;;;;;;22.00;100.00;99820.38;7396627;19;20043;-51
2023/08/11 07:27:26;;;;;;;0.00;0.00;;;;;;;21.34;100.00;99817.09;7393446;19;20015;-51
2023/08/11 07:37:52;;;;;;;0.20;0.10;;;;;;;22.60;100.00;99814.34;7396360;19;20048;-54
2023/08/11 07:44:26;;;;;;;1.30;0.50;;;;;;;20.03;100.00;99839.09;7394737;19;20660;-53
2023/08/11 07:55:47;;;;;;;0.68;0.20;;;;;;;23.98;100.00;99838.38;7391569;19;20036;-52
2023/08/11 07:58:25;;;;;;;12.93;0.95;;;;;;;24.22;100.00;99844.84;7393210;19;20018;-52
2023/08/11 08:01:24;;;;;;;0.15;0.10;;;;;;;23.94;100.00;99835.16;7394112;19;20015;-53
2023/08/11 08:04:27;;;;;;;0.10;0.00;;;;;;;23.94;100.00;99840.09;7395534;19;20542;-52
2023/08/11 08:07:07;;;;;;;0.17;0.17;;;;;;;23.94;100.00;99835.16;7391737;19;20021;-52
2023/08/11 08:10:14;;;;;;;5.22;0.45;;;;;;;23.83;100.00;99844.06;7394130;19;20006;-53
2023/08/11 08:16:11;;;;;;;0.10;0.10;;;;;;;23.10;100.00;99841.25;7395679;19;20007;-53
2023/08/11 08:19:17;;;;;;;0.38;0.25;;;;;;;22.92;100.00;99848.75;7393752;19;20051;-52
2023/08/11 08:21:48;;;;;;;1.75;0.20;;;;;;;22.85;100.00;99846.63;7394543;19;20014;-52
2023/08/11 08:24:33;;;;;;;0.13;0.10;;;;;;;22.61;100.00;99852.75;7394749;19;20106;-52
2023/08/11 08:27:09;;;;;;;15.73;0.47;;;;;;;21.98;100.00;99842.06;7392170;19;20463;-52
2023/08/11 08:29:43;;;;;;;0.20;0.10;;;;;;;21.24;100.00;99852.09;7395129;19;20093;-52
2023/08/11 08:32:36;;;;;;;0.20;0.15;;;;;;;20.61;100.00;99847.50;7393282;19;20010;-52
2023/08/11 08:35:43;;;;;;;1.20;0.20;;;;;;;20.61;100.00;99847.50;7396365;19;20032;-52
2023/08/11 08:38:25;;;;;;;0.45;0.25;;;;;;;20.65;100.00;99847.94;7392008;19;20011;-52
2023/08/11 08:40:55;;;;;;;2.15;0.30;;;;;;;20.51;100.00;99847.19;7392694;19;20011;-51
2023/08/11 08:43:30;;;;;;;0.10;0.00;;;;;;;20.31;100.00;99856.34;7392636;19;20014;-52
2023/08/11 08:46:22;;;;;;;2.03;0.38;;;;;;;20.27;100.00;99867.22;7393950;19;20359;-53
2023/08/11 08:49:27;;;;;;;3.45;0.40;;;;;;;20.32;100.00;99860.66;7393710;19;20011;-53
2023/08/11 08:55:14;;;;;;;0.10;0.10;;;;;;;20.15;100.00;99863.78;7395980;19;20102;-52
2023/08/11 08:57:51;;;;;;;0.10;0.00;;;;;;;21.96;100.00;99865.31;7392207;19;20035;-54
2023/08/11 09:00:30;;;;;;;1.45;0.20;;;;;;;21.98;100.00;99867.59;7393100;19;20017;-54
2023/08/11 09:03:09;;;;;;;0.40;0.10;;;;;;;21.85;100.00;99866.34;7392660;19;20014;-53
2023/08/11 09:06:05;;;;;;;0.80;0.30;;;;;;;22.22;100.00;99870.81;7391350;19;20011;-53
2023/08/11 09:08:44;;;;;;;0.68;0.30;;;;;;;21.66;100.00;99870.66;7390724;19;20014;-55
2023/08/11 09:15:00;;;;;;;0.85;0.43;;;;;;;20.59;100.00;99867.09;7392228;19;20007;-53
2023/08/11 09:17:48;;;;;;;1.23;0.30;;;;;;;24.95;100.00;99864.44;7394838;19;20014;-53
2023/08/11 09:20:29;;;;;;;0.20;0.20;;;;;;;23.54;100.00;99865.44;7397246;19;20014;-55
2023/08/11 09:23:11;;;;;;;0.70;0.17;;;;;;;20.05;100.00;99865.53;7400574;19;20078;-54
2023/08/11 09:25:45;;;;;;;4.88;0.50;;;;;;;19.52;100.00;99863.81;7397315;19;20604;-54
2023/08/11 09:28:17;;;;;;;3.20;0.35;;;;;;;21.65;100.00;99864.25;7396490;19;20011;-53
2023/08/11 09:30:48;;;;;;;1.63;0.52;;;;;;;23.18;100.00;99867.59;7399814;19;20065;-53
2023/08/11 09:33:24;;;;;;;0.73;0.32;;;;;;;27.34;99.44;99861.50;7399821;19;20038;-53
2023/08/11 09:35:53;;;;;;;1.38;0.30;;;;;;;25.77;100.00;99870.31;7399592;19;20010;-53
2023/08/11 09:38:26;;;;;;;0.10;0.10;;;;;;;21.81;100.00;99865.13;7398526;19;20347;-53
2023/08/11 09:41:01;;;;;;;0.35;0.25;;;;;;;21.17;100.00;99869.75;7397439;19;20054;-52
2023/08/11 09:43:30;;;;;;;0.57;0.38;;;;;;;26.28;100.00;99861.91;7399318;19;20338;-52
2023/08/11 09:46:07;;;;;;;10.77;1.63;;;;;;;30.45;89.55;99857.66;7398275;19;20066;-52
2023/08/11 09:48:47;;;;;;;1.58;0.15;;;;;;;31.68;74.94;99853.56;7397069;19;20041;-54
2023/08/11 09:51:30;;;;;;;7.85;0.55;;;;;;;34.41;61.61;99850.72;7399882;19;20019;-53
2023/08/11 09:54:14;;;;;;;0.75;0.13;;;;;;;35.77;53.61;99843.09;7398023;19;20018;-53
2023/08/11 09:57:03;;;;;;;5.95;0.25;;;;;;;36.43;50.81;99842.47;7400826;19;20463;-52
2023/08/11 09:59:42;;;;;;;2.35;0.73;;;;;;;36.86;48.34;99842.13;7399197;19;20011;-53
2023/08/11 10:02:42;;;;;;;3.20;0.28;;;;;;;37.33;44.74;99841.16;7401376;19;20038;-52
2023/08/11 10:05:30;;;;;;;3.88;0.20;;;;;;;37.65;43.75;99837.41;7394748;19;20034;-52
2023/08/11 10:08:24;;;;;;;5.20;0.30;;;;;;;37.61;42.48;99842.31;7394077;19;20006;-53
2023/08/11 10:11:00;;;;;;;0.30;0.15;;;;;;;38.16;42.96;99831.34;7396931;19;20011;-53
2023/08/11 10:13:34;;;;;;;1.35;0.10;;;;;;;38.15;40.85;99829.84;7398812;19;20010;-52
2023/08/11 10:16:17;;;;;;;2.45;0.35;;;;;;;37.81;41.21;99822.75;7397175;19;20011;-53
2023/08/11 10:18:58;;;;;;;1.83;0.55;;;;;;;37.59;41.53;99822.63;7396592;19;20098;-53
2023/08/11 10:21:37;;;;;;;4.15;0.20;;;;;;;37.59;41.03;99827.69;7397675;19;20011;-54
2023/08/11 10:24:11;;;;;;;0.10;0.00;;;;;;;37.76;39.17;99823.97;7396913;19;20018;-53
2023/08/11 10:26:45;;;;;;;0.57;0.20;;;;;;;36.92;40.62;99830.81;7402158;19;20010;-54
2023/08/11 10:29:53;;;;;;;7.40;0.25;;;;;;;33.76;42.69;99838.56;7398675;19;20074;-53
2023/08/11 10:32:39;;;;;;;1.17;0.20;;;;;;;32.67;48.10;99831.56;7397520;19;20458;-52
2023/08/11 10:35:37;;;;;;;0.57;0.20;;;;;;;33.14;46.52;99846.59;7396261;19;20025;-57
2023/08/11 10:38:40;;;;;;;0.82;0.80;;;;;;;33.82;47.57;99838.91;7399239;19;20014;-53
2023/08/11 10:41:19;;;;;;;0.25;0.00;;;;;;;34.53;44.34;99837.66;7396499;19;20018;-52
2023/08/11 10:43:56;;;;;;;0.63;0.22;;;;;;;34.46;43.88;99843.75;7396146;19;20010;-52
2023/08/11 10:47:05;;;;;;;0.45;0.15;;;;;;;34.13;43.77;99836.25;7397358;19;20463;-53
2023/08/11 10:50:08;;;;;;;0.20;0.20;;;;;;;34.23;44.93;99828.13;7398498;19;20017;-53
2023/08/11 10:52:58;;;;;;;4.90;0.30;;;;;;;34.68;44.69;99833.31;7395805;19;20014;-53
2023/08/11 10:55:39;;;;;;;0.82;0.30;;;;;;;34.77;43.64;99826.56;7394206;19;20014;-52
2023/08/11 10:58:47;;;;;;;3.92;0.63;;;;;;;35.03;44.32;99831.53;7395266;19;20035;-52
2023/08/11 11:02:06;;;;;;;2.05;0.28;;;;;;;35.63;43.47;99833.72;7395684;19;20046;-53
2023/08/11 11:09:17;;;;;;;10.68;0.30;;;;;;;35.40;41.38;99831.16;7394553;19;20791;-53
2023/08/11 11:12:17;;;;;;;10.30;0.90;;;;;;;35.91;41.12;99819.06;7393608;19;20031;-52
2023/08/11 11:15:15;;;;;;;0.93;0.05;;;;;;;36.28;41.33;99820.03;7397949;19;20006;-52
2023/08/11 11:18:15;;;;;;;0.45;0.10;;;;;;;36.56;41.18;99816.91;7398418;19;20455;-52
2023/08/11 11:33:27;;;;;;;0.28;0.10;;;;;;;36.76;39.38;99809.78;7396108;19;20498;-54
2023/08/11 11:41:00;;;;;;;1.13;0.30;;;;;;;37.80;36.45;99803.81;7394172;19;20007;-53
2023/08/11 11:43:41;;;;;;;2.75;0.10;;;;;;;37.61;37.40;99804.50;7391434;19;20014;-53
2023/08/11 11:47:03;;;;;;;4.22;0.10;;;;;;;37.73;38.07;99808.63;7392764;19;20099;-53
2023/08/11 11:50:31;;;;;;;0.30;0.10;;;;;;;37.73;36.03;99808.63;7396379;19;20028;-52
2023/08/11 11:53:51;;;;;;;0.15;0.15;;;;;;;37.48;36.50;99796.75;7393980;19;20034;-53
2023/08/11 11:56:32;;;;;;;0.55;0.10;;;;;;;37.56;37.00;99794.88;7392881;19;20099;-53
2023/08/11 11:59:12;;;;;;;1.10;0.00;;;;;;;37.80;37.50;99792.94;7394977;19;20019;-52
2023/08/11 12:02:08;;;;;;;0.30;0.10;;;;;;;33.25;43.62;99797.44;7394152;19;20405;-52
2023/08/11 12:05:27;;;;;;;1.42;0.65;;;;;;;29.56;58.65;99793.22;7394432;19;20090;-52
2023/08/11 12:12:34;;;;;;;2.58;0.10;;;;;;;33.19;56.31;99785.56;7395356;19;20099;-51
2023/08/11 12:15:32;;;;;;;0.15;0.08;;;;;;;44.35;34.10;99771.50;7392886;19;20085;-53
2023/08/11 12:19:00;;;;;;;4.03;0.20;;;;;;;40.65;34.90;99761.91;7394798;19;20041;-53
2023/08/11 12:23:37;;;;;;;1.05;0.43;;;;;;;39.32;33.57;99766.88;7393802;19;20046;-53
2023/08/11 12:27:26;;;;;;;0.73;0.20;;;;;;;37.99;36.18;99759.44;7396004;19;20039;-53
2023/08/11 12:31:02;;;;;;;1.58;0.40;;;;;;;37.05;36.64;99754.41;7393935;19;20455;-54
2023/08/11 12:34:54;;;;;;;1.30;0.32;;;;;;;42.95;31.02;99744.75;7391887;19;20822;-52
2023/08/11 12:45:31;;;;;;;0.68;0.28;;;;;;;37.09;38.35;99753.78;7393161;19;20042;-52
2023/08/11 12:48:18;;;;;;;;;;;;;;;32.93;42.32;99758.09;7392025;19;20519;-53
2023/08/11 12:51:50;;;;;;;2.63;0.30;;;;;;;34.98;44.91;99759.56;7392005;19;20269;-53
2023/08/11 12:55:19;;;;;;;1.27;0.30;;;;;;;33.82;41.42;99742.78;7395166;19;20014;-53
2023/08/11 13:06:10;;;;;;;2.05;0.22;;;;;;;31.57;49.25;99742.00;7400169;19;20039;-53
2023/08/11 13:09:14;;;;;;;0.15;0.08;;;;;;;35.36;40.63;99749.09;7399715;19;20018;-53
2023/08/11 13:12:15;;;;;;;5.40;0.30;;;;;;;40.61;34.69;99738.44;7395998;19;20049;-54
2023/08/11 13:15:17;;;;;;;0.63;0.38;;;;;;;37.36;35.78;99736.00;7397099;19;20041;-53
2023/08/11 13:18:12;;;;;;;1.35;0.43;;;;;;;30.78;44.10;99739.81;7401390;19;20010;-53
2023/08/11 13:21:11;;;;;;;0.90;0.38;;;;;;;31.27;49.88;99738.69;7399090;19;20039;-52
2023/08/11 13:23:55;;;;;;;0.10;0.10;;;;;;;32.10;46.57;99730.16;7396553;19;20494;-52
2023/08/11 13:27:29;;;;;;;2.75;0.40;;;;;;;33.13;44.69;99720.97;7399189;19;20011;-54
2023/08/11 13:30:24;;;;;;;1.48;0.38;;;;;;;26.66;58.42;99733.72;7399353;19;20011;-52
2023/08/11 13:33:19;;;;;;;1.50;0.13;;;;;;;28.73;61.50;99725.50;7399202;19;20010;-53
2023/08/11 13:35:58;;;;;;;2.63;0.60;;;;;;;31.40;47.40;99723.69;7398554;19;20471;-53
2023/08/11 13:38:37;;;;;;;0.57;0.05;;;;;;;32.40;45.82;99722.53;7400383;19;20031;-52
2023/08/11 13:42:17;;;;;;;1.23;0.17;;;;;;;33.23;42.55;99715.75;7399282;19;20039;-51
2023/08/11 13:45:15;;;;;;;1.20;0.20;;;;;;;34.37;39.19;99714.56;7398864;19;20030;-52
2023/08/11 13:48:01;;;;;;;1.15;0.47;;;;;;;35.46;38.98;99706.84;7397732;19;20011;-52
2023/08/11 13:51:03;;;;;;;0.55;0.00;;;;;;;31.94;42.35;99717.69;7398468;19;20078;-51
2023/08/11 13:54:23;;;;;;;0.20;0.10;;;;;;;31.69;44.69;99714.69;7397654;19;20372;-51
2023/08/11 14:04:13;;;;;;;7.80;0.30;;;;;;;35.19;38.07;99712.84;7389264;19;20044;-82
2023/08/11 14:06:39;;;;;;;2.88;0.20;;;;;;;32.95;41.02;99711.25;7392106;19;20014;-82
2023/08/11 14:09:05;;;;;;;5.10;0.32;;;;;;;30.76;46.39;99724.53;7391504;19;20037;-82
2023/08/11 14:11:31;;;;;;;0.10;0.10;;;;;;;32.88;42.46;99719.59;7394325;19;20022;-82
2023/08/11 14:13:59;;;;;;;2.60;0.50;;;;;;;26.24;54.70;99724.53;7394303;19;20027;-81
2023/08/11 14:16:25;;;;;;;3.10;0.30;;;;;;;25.23;62.18;99726.53;7398859;19;20042;-83
2023/08/11 14:18:51;;;;;;;0.95;0.10;;;;;;;25.12;74.83;99727.72;7396033;19;20038;-81
2023/08/11 14:21:18;;;;;;;2.05;0.10;;;;;;;25.68;76.03;99728.28;7394886;19;20014;-88
2023/08/11 14:24:17;;;;;;;0.28;0.00;;;;;;;26.45;71.27;99721.22;7394344;19;20014;-93
2023/08/11 14:30:01;;;;;;;0.50;0.10;;;;;;;25.06;84.12;99729.31;7391577;19;20060;-79
2023/08/11 14:36:00;;;;;;;0.08;0.05;;;;;;;25.92;77.08;99716.09;7391770;19;20041;-56
2023/08/11 14:38:27;;;;;;;1.38;0.43;;;;;;;28.34;65.35;99714.06;7391966;19;20018;-56
2023/08/11 14:40:53;;;;;;;0.88;0.40;;;;;;;28.89;61.86;99706.63;7388849;19;20335;-56
2023/08/11 14:43:35;;;;;;;1.63;0.20;;;;;;;29.54;59.32;99709.84;7388314;19;20024;-56
2023/08/11 14:46:32;;;;;;;7.43;0.28;;;;;;;28.04;61.73;99700.31;7394228;19;20010;-55
2023/08/11 14:49:15;;;;;;;1.10;0.35;;;;;;;29.79;61.51;99707.31;7391607;19;20017;-56
2023/08/11 14:51:42;;;;;;;1.88;0.03;;;;;;;30.19;58.10;99711.44;7393881;19;20708;-56
2023/08/11 14:54:09;;;;;;;1.85;0.20;;;;;;;29.92;56.42;99706.03;7391468;19;20078;-56
2023/08/11 14:56:36;;;;;;;3.22;0.20;;;;;;;29.64;57.30;99707.69;7394287;19;20034;-56
2023/08/11 14:59:03;;;;;;;3.20;0.57;;;;;;;29.61;58.63;99706.03;7391913;19;20359;-56
2023/08/11 15:01:30;;;;;;;0.50;0.10;;;;;;;29.46;57.98;99709.28;7392667;19;20035;-56
2023/08/11 15:03:58;;;;;;;0.93;0.32;;;;;;;29.49;57.85;99708.06;7390768;19;20070;-56
2023/08/11 15:06:37;;;;;;;1.75;0.50;;;;;;;29.58;59.53;99709.38;7390761;19;20532;-56
2023/08/11 15:09:04;;;;;;;3.40;0.22;;;;;;;29.85;56.80;99701.97;7394760;19;20348;-54
2023/08/11 15:11:43;;;;;;;0.20;0.10;;;;;;;29.81;57.26;99710.31;7393470;19;20025;-55
2023/08/11 15:14:10;;;;;;;1.48;0.25;;;;;;;29.77;58.17;99703.56;7393751;19;20496;-55
2023/08/11 15:16:38;;;;;;;2.38;0.30;;;;;;;29.73;61.83;99701.13;7393045;19;20015;-55
2023/08/11 15:19:05;;;;;;;2.67;0.20;;;;;;;29.49;59.08;99702.31;7393672;19;20017;-55
2023/08/11 15:21:31;;;;;;;1.52;0.10;;;;;;;29.52;58.49;99698.22;7393190;19;20010;-55
2023/08/11 15:23:57;;;;;;;0.52;0.30;;;;;;;29.56;62.13;99689.88;7393069;19;20071;-55
2023/08/11 15:26:25;;;;;;;4.47;0.17;;;;;;;29.89;59.86;99684.25;7395282;19;20039;-54